KBIE/BIE METAR and TAF weather

Enter ICAO airport designator
Station Type Date Time Source
KBIE METAR 2021/05/11 22:55 UTC NOAA

KBIE 112255Z AUTO 06008KT 10SM SCT070 15/00 A3026 RMK AO2 T01540000


Station Type Date Time Source
KBIE Decoded METAR 2021/05/11 22:55 UTC NOAA

Beatrice Municipal, NE, United States (KBIE) 40-18N 096-45W
May 11, 2021 - 06:55 PM EDT / 2021.05.11 2255 UTC
Wind: from the ENE (060 degrees) at 9 MPH (8 KT):0
Visibility: 10 mile(s):0
Sky conditions: partly cloudy
Temperature: 59.7 F (15.4 C)
Dew Point: 32.0 F (0.0 C)
Relative Humidity: 34%
Pressure (altimeter): 30.26 in. Hg (1024 hPa)
ob: KBIE 112255Z AUTO 06008KT 10SM SCT070 15/00 A3026 RMK AO2 T01540000
cycle: 23

Station Type Date Time Source
KBIE TAF UTC NOAA

Error!

Example: see airport list